Aviation Digital Data Service (ADDS)

Output produced by METARs form (2050 UTC 23 January 2017)
found at http://www.aviationweather.gov/adds/metars/
 
KSAV 231953Z 28015G22KT 10SM -DZ BKN028 OVC030 15/09 A2934 RMK AO2 PK WND 28027/1901 DZB41 SLP934 P0000 T01500094